Time;durP1;ratioP1;P1;durP2;ratioP2;P2;SDS_P1;SDS_P2;PMS_P1;PMS_P2;Temp;Humidity;BMP_temperature;BMP_pressure;BME280_temperature;BME280_humidity;BME280_pressure;Samples;Min_cycle;Max_cycle;Signal;HPM_P1;HPM_P2
2021/10/17 00:00:53;;;;;;;7.35;3.30;;;;;;;8.35;77.29;101429.83;1732587;82;21033;-82
2021/10/17 00:03:20;;;;;;;6.25;3.42;;;;;;;8.36;77.24;101425.97;1732587;82;21571;-82
2021/10/17 00:05:47;;;;;;;15.03;3.70;;;;;;;8.36;77.14;101435.58;1732586;82;21109;-82
2021/10/17 00:08:14;;;;;;;6.65;4.03;;;;;;;8.30;77.04;101434.00;1732856;82;21768;-91
2021/10/17 00:10:40;;;;;;;7.05;3.65;;;;;;;8.28;77.00;101435.23;1733114;82;21018;-91
2021/10/17 00:13:08;;;;;;;8.55;4.33;;;;;;;8.24;76.96;101436.31;1733609;82;21104;-85
2021/10/17 00:15:35;;;;;;;7.90;3.22;;;;;;;8.20;76.99;101435.70;1732848;82;21101;-82
2021/10/17 00:18:04;;;;;;;8.00;3.70;;;;;;;8.15;77.05;101439.44;1732747;82;21136;-82
2021/10/17 00:20:31;;;;;;;9.83;4.03;;;;;;;8.10;77.04;101435.28;1732868;81;21775;-82
2021/10/17 00:22:58;;;;;;;11.93;4.20;;;;;;;8.07;77.09;101436.86;1732698;82;21093;-82
2021/10/17 00:25:27;;;;;;;10.20;3.90;;;;;;;8.03;77.12;101437.13;1732637;81;21057;-82
2021/10/17 00:27:54;;;;;;;9.75;3.75;;;;;;;7.97;77.18;101435.12;1732522;82;21077;-82
2021/10/17 00:30:20;;;;;;;11.75;3.30;;;;;;;7.97;77.36;101435.54;1732833;82;21096;-82
2021/10/17 00:32:47;;;;;;;9.78;3.35;;;;;;;7.97;77.50;101435.12;1732784;82;21755;-82
2021/10/17 00:35:14;;;;;;;10.80;3.17;;;;;;;8.01;77.56;101437.89;1732537;82;21077;-91
2021/10/17 00:37:41;;;;;;;7.50;3.35;;;;;;;8.03;77.64;101446.30;1727406;82;21082;-93
2021/10/17 00:40:14;;;;;;;9.70;3.37;;;;;;;8.09;77.74;101440.45;1717784;82;21107;-92
2021/10/17 00:42:42;;;;;;;8.47;3.20;;;;;;;8.13;77.75;101440.67;1705810;83;21011;-92
2021/10/17 00:45:12;;;;;;;8.88;3.60;;;;;;;8.19;77.78;101442.68;1717792;83;21712;-92
2021/10/17 00:47:38;;;;;;;9.68;3.47;;;;;;;8.24;77.71;101435.01;1717745;82;21568;-91
2021/10/17 00:50:06;;;;;;;8.78;3.65;;;;;;;8.27;77.66;101435.16;1717807;82;21344;-92
2021/10/17 00:52:34;;;;;;;7.78;3.60;;;;;;;8.30;77.63;101434.89;1717591;83;21114;-91
2021/10/17 00:55:01;;;;;;;7.05;3.42;;;;;;;8.34;77.59;101435.92;1717560;83;21568;-91
2021/10/17 00:57:28;;;;;;;8.53;3.98;;;;;;;8.37;77.55;101438.66;1717578;82;21745;-91
2021/10/17 00:59:54;;;;;;;7.00;3.60;;;;;;;8.40;77.54;101441.44;1717614;82;21003;-90
2021/10/17 01:02:21;;;;;;;11.35;3.65;;;;;;;8.44;77.54;101436.84;1717879;82;21675;-90
2021/10/17 01:04:48;;;;;;;9.55;3.83;;;;;;;8.49;77.55;101442.31;1717805;82;21256;-91
2021/10/17 01:07:14;;;;;;;10.78;3.58;;;;;;;8.53;77.52;101429.80;1717543;82;21094;-91
2021/10/17 01:09:41;;;;;;;8.98;3.33;;;;;;;8.58;77.49;101437.47;1717473;82;21760;-91
2021/10/17 01:12:08;;;;;;;6.87;3.22;;;;;;;8.62;77.39;101431.52;1717481;82;21038;-90
2021/10/17 01:14:34;;;;;;;7.80;3.60;;;;;;;8.67;77.33;101433.02;1717598;83;21094;-91
2021/10/17 01:17:01;;;;;;;6.85;3.05;;;;;;;8.72;77.30;101432.81;1717526;83;21066;-91
2021/10/17 01:19:31;;;;;;;5.45;2.75;;;;;;;8.76;77.16;101436.05;1705687;83;21007;-91
2021/10/17 01:21:58;;;;;;;9.80;3.15;;;;;;;8.80;77.08;101433.14;1717937;82;21778;-90
2021/10/17 01:24:25;;;;;;;6.20;3.02;;;;;;;8.83;77.01;101428.03;1717507;82;21003;-91
2021/10/17 01:26:51;;;;;;;5.10;3.00;;;;;;;8.88;76.93;101431.77;1717580;82;21098;-91
2021/10/17 01:29:18;;;;;;;6.67;2.67;;;;;;;8.91;76.90;101426.62;1718070;83;21165;-90
2021/10/17 01:31:51;;;;;;;6.58;2.80;;;;;;;8.95;76.82;101420.66;1717995;83;21039;-90
2021/10/17 01:34:18;;;;;;;6.22;2.80;;;;;;;8.97;76.69;101419.42;1718270;82;21780;-90
2021/10/17 01:36:45;;;;;;;5.70;3.02;;;;;;;8.99;76.65;101413.81;1718232;83;21058;-81
2021/10/17 01:39:13;;;;;;;4.50;2.40;;;;;;;8.99;76.58;101402.91;1710364;82;21082;-82
2021/10/17 01:41:40;;;;;;;5.42;2.20;;;;;;;9.02;76.53;101411.33;1709392;83;21093;-82
2021/10/17 01:44:14;;;;;;;6.17;2.87;;;;;;;9.02;76.41;101412.21;1709590;83;21492;-82
2021/10/17 01:46:41;;;;;;;5.28;2.80;;;;;;;9.02;76.33;101407.39;1708297;83;21780;-82
2021/10/17 01:49:07;;;;;;;5.67;2.72;;;;;;;9.01;76.32;101406.50;1710099;83;21502;-91
2021/10/17 01:51:34;;;;;;;6.42;2.70;;;;;;;9.04;76.30;101405.72;1709547;82;21430;-91
2021/10/17 01:54:03;;;;;;;5.33;2.30;;;;;;;9.05;76.32;101400.96;1709340;83;22201;-90
2021/10/17 01:56:30;;;;;;;5.70;2.50;;;;;;;9.04;76.22;101401.78;1710009;83;21109;-91
2021/10/17 01:58:57;;;;;;;7.25;2.55;;;;;;;9.06;76.21;101392.23;1709837;83;21818;-91
2021/10/17 02:01:24;;;;;;;7.30;2.33;;;;;;;9.07;76.20;101396.67;1710015;82;21047;-90
2021/10/17 02:03:50;;;;;;;4.80;2.58;;;;;;;9.05;76.03;101395.70;1723830;80;21591;-90
2021/10/17 02:06:17;;;;;;;5.00;2.52;;;;;;;9.01;76.04;101393.77;1743642;81;21057;-90
2021/10/17 02:08:44;;;;;;;6.55;2.80;;;;;;;8.99;76.10;101395.43;1744802;80;21067;-92
2021/10/17 02:11:10;;;;;;;5.90;2.58;;;;;;;8.95;76.09;101391.78;1744694;81;21745;-92
2021/10/17 02:13:37;;;;;;;9.55;2.92;;;;;;;8.91;76.09;101392.48;1745695;81;21114;-91
2021/10/17 02:16:04;;;;;;;5.97;3.02;;;;;;;8.88;76.11;101388.44;1745488;82;21058;-81
2021/10/17 02:18:32;;;;;;;8.75;3.05;;;;;;;8.84;76.18;101386.49;1743765;81;21082;-81
2021/10/17 02:20:59;;;;;;;7.75;2.80;;;;;;;8.80;76.19;101388.52;1732382;82;21117;-82
2021/10/17 02:23:26;;;;;;;8.40;3.50;;;;;;;8.76;76.27;101386.17;1744148;81;21754;-82
2021/10/17 02:25:53;;;;;;;6.70;3.27;;;;;;;8.79;76.36;101388.05;1742492;81;21556;-81
2021/10/17 02:28:19;;;;;;;8.55;3.02;;;;;;;8.79;76.39;101385.42;1743293;81;21587;-82
2021/10/17 02:30:46;;;;;;;6.35;2.62;;;;;;;8.78;76.36;101384.50;1743959;82;21054;-82
2021/10/17 02:33:12;;;;;;;5.67;2.87;;;;;;;8.78;76.47;101380.56;1743319;80;21082;-82
2021/10/17 02:35:39;;;;;;;6.83;3.35;;;;;;;8.78;76.42;101374.00;1744468;80;21609;-81
2021/10/17 02:38:06;;;;;;;4.78;2.80;;;;;;;8.73;76.33;101372.52;1744477;80;21080;-84
2021/10/17 02:40:33;;;;;;;7.10;2.92;;;;;;;8.69;76.34;101373.22;1744676;81;21090;-82
2021/10/17 02:42:59;;;;;;;7.20;2.67;;;;;;;8.62;76.31;101379.03;1713315;82;21039;-81
2021/10/17 02:45:26;;;;;;;7.92;3.00;;;;;;;8.56;76.32;101365.66;1742564;81;21102;-81
2021/10/17 02:47:53;;;;;;;4.78;2.70;;;;;;;8.51;76.39;101365.44;1742392;81;21193;-81
2021/10/17 02:50:19;;;;;;;8.20;2.65;;;;;;;8.46;76.39;101359.09;1742390;81;21058;-81
2021/10/17 02:52:46;;;;;;;10.35;3.40;;;;;;;8.39;76.45;101359.65;1742475;81;21023;-81
2021/10/17 02:55:13;;;;;;;7.12;2.98;;;;;;;8.34;76.54;101367.30;1742584;81;21062;-80
2021/10/17 02:57:39;;;;;;;5.28;2.87;;;;;;;8.30;76.63;101372.36;1742620;81;21091;-90
2021/10/17 03:00:08;;;;;;;8.23;2.85;;;;;;;8.25;76.71;101366.89;1743018;81;21901;-89
2021/10/17 03:02:35;;;;;;;6.05;2.83;;;;;;;8.23;76.76;101374.22;1743130;82;21043;-89
2021/10/17 03:05:02;;;;;;;4.35;2.83;;;;;;;8.21;76.85;101370.21;1743249;81;21074;-90
2021/10/17 03:07:29;;;;;;;7.53;3.05;;;;;;;8.19;76.95;101371.88;1743284;81;21015;-90
2021/10/17 03:09:55;;;;;;;6.75;2.98;;;;;;;8.18;77.02;101368.75;1743416;81;21069;-90
2021/10/17 03:12:22;;;;;;;4.92;2.77;;;;;;;8.17;77.06;101381.40;1743366;81;22541;-90
2021/10/17 03:14:49;;;;;;;6.03;2.95;;;;;;;8.18;77.13;101383.17;1743444;81;21646;-90
2021/10/17 03:17:15;;;;;;;9.33;3.72;;;;;;;8.18;77.21;101381.86;1743212;80;21042;-80
2021/10/17 03:19:42;;;;;;;7.05;2.90;;;;;;;8.17;77.14;101382.28;1742847;81;21000;-80
2021/10/17 03:22:09;;;;;;;9.03;2.87;;;;;;;8.17;77.18;101384.02;1742600;81;21113;-80
2021/10/17 03:24:35;;;;;;;7.83;3.58;;;;;;;8.18;77.23;101384.48;1742609;81;22485;-81
2021/10/17 03:27:02;;;;;;;6.37;3.33;;;;;;;8.18;77.24;101382.78;1742566;81;20987;-81
2021/10/17 03:29:29;;;;;;;11.88;3.92;;;;;;;8.19;77.21;101383.67;1742642;82;21079;-81
2021/10/17 03:31:55;;;;;;;7.67;3.55;;;;;;;8.18;77.20;101378.85;1742568;81;21054;-80
2021/10/17 03:34:22;;;;;;;11.18;3.70;;;;;;;8.17;77.18;101380.09;1742574;81;21058;-81
2021/10/17 03:36:49;;;;;;;12.85;3.35;;;;;;;8.13;77.14;101380.36;1742558;81;21706;-81
2021/10/17 03:39:15;;;;;;;8.33;3.52;;;;;;;8.10;77.14;101382.84;1742090;81;21063;-82
2021/10/17 03:41:42;;;;;;;9.68;3.42;;;;;;;8.06;77.11;101378.28;1745487;82;21093;-80
2021/10/17 03:44:09;;;;;;;9.83;3.65;;;;;;;8.02;77.16;101379.41;1743224;80;21085;-81
2021/10/17 03:46:36;;;;;;;8.88;3.45;;;;;;;7.98;77.16;101379.67;1742694;81;21070;-80
2021/10/17 03:49:02;;;;;;;9.20;3.75;;;;;;;7.94;77.21;101378.64;1742677;81;21697;-81
2021/10/17 03:51:29;;;;;;;9.38;3.72;;;;;;;7.89;77.20;101376.63;1742749;81;21504;-80
2021/10/17 03:53:56;;;;;;;8.60;3.55;;;;;;;7.82;77.20;101375.86;1742791;82;21046;-81
2021/10/17 03:56:22;;;;;;;10.88;4.12;;;;;;;7.78;77.26;101376.13;1742831;81;21588;-80
2021/10/17 03:58:49;;;;;;;9.93;3.67;;;;;;;7.74;77.40;101371.58;1742877;81;20995;-80
2021/10/17 04:01:16;;;;;;;5.50;3.33;;;;;;;7.75;77.58;101373.35;1743338;82;21733;-90
2021/10/17 04:03:42;;;;;;;10.40;3.70;;;;;;;7.77;77.67;101366.45;1743705;81;21015;-90
2021/10/17 04:06:09;;;;;;;11.12;3.72;;;;;;;7.81;77.75;101368.42;1743456;81;21030;-81
2021/10/17 04:08:36;;;;;;;8.10;3.85;;;;;;;7.85;77.77;101364.22;1742918;81;21650;-80
2021/10/17 04:11:02;;;;;;;12.03;4.42;;;;;;;7.88;77.79;101360.02;1742960;81;21047;-90
2021/10/17 04:13:29;;;;;;;8.85;4.05;;;;;;;7.93;77.78;101365.03;1743674;81;21713;-90
2021/10/17 04:15:55;;;;;;;12.00;4.00;;;;;;;7.96;77.78;101365.18;1743418;82;21000;-91
2021/10/17 04:18:22;;;;;;;10.55;3.77;;;;;;;7.99;77.75;101361.79;1742929;81;21043;-80
2021/10/17 04:20:49;;;;;;;10.60;4.92;;;;;;;8.03;77.76;101361.52;1743588;81;21022;-90
2021/10/17 04:23:16;;;;;;;8.55;3.77;;;;;;;8.05;77.73;101357.23;1743605;82;21094;-91
2021/10/17 04:25:42;;;;;;;7.37;3.60;;;;;;;8.10;77.74;101361.86;1743616;81;21726;-90
2021/10/17 04:28:09;;;;;;;10.40;4.20;;;;;;;8.15;77.76;101358.15;1743418;81;21086;-89
2021/10/17 04:30:36;;;;;;;10.70;4.08;;;;;;;8.19;77.68;101353.52;1743521;81;21054;-90
2021/10/17 04:33:02;;;;;;;13.98;4.30;;;;;;;8.21;77.63;101349.23;1743617;81;22272;-91
2021/10/17 04:35:32;;;;;;;8.60;4.12;;;;;;;8.22;77.58;101347.11;1743606;81;21051;-91
2021/10/17 04:37:59;;;;;;;15.60;4.53;;;;;;;8.24;77.54;101344.52;1732899;82;22587;-91
2021/10/17 04:40:26;;;;;;;11.93;4.45;;;;;;;8.26;77.51;101346.41;1743271;81;21043;-90
2021/10/17 04:42:52;;;;;;;10.88;4.20;;;;;;;8.27;77.45;101352.11;1743844;81;21051;-91
2021/10/17 04:45:20;;;;;;;11.28;4.37;;;;;;;8.29;77.43;101353.50;1743243;81;21519;-90
2021/10/17 04:47:46;;;;;;;11.95;4.37;;;;;;;8.28;77.34;101356.97;1743612;81;21054;-90
2021/10/17 04:50:13;;;;;;;13.30;4.08;;;;;;;8.28;77.36;101353.04;1743361;82;21555;-81
2021/10/17 04:52:40;;;;;;;11.75;4.12;;;;;;;8.29;77.31;101353.50;1742411;81;21039;-81
2021/10/17 04:55:08;;;;;;;11.68;4.53;;;;;;;8.29;77.30;101346.94;1729606;81;21141;-81
2021/10/17 04:57:38;;;;;;;9.90;4.22;;;;;;;8.32;77.32;101356.27;1730227;82;21073;-81
2021/10/17 05:00:08;;;;;;;8.80;3.80;;;;;;;8.34;77.30;101348.05;1733442;81;21027;-81
2021/10/17 05:02:35;;;;;;;9.05;3.67;;;;;;;8.36;77.29;101350.32;1736076;82;21762;-81
2021/10/17 05:05:01;;;;;;;11.18;4.33;;;;;;;8.37;77.27;101349.08;1726736;81;21144;-81
2021/10/17 05:07:28;;;;;;;10.43;4.00;;;;;;;8.41;77.26;101349.19;1740618;81;21015;-89
2021/10/17 05:09:55;;;;;;;9.78;4.40;;;;;;;8.42;77.19;101348.41;1736798;81;21521;-91
2021/10/17 05:12:21;;;;;;;8.63;4.55;;;;;;;8.45;77.19;101352.06;1730631;82;21050;-90
2021/10/17 05:14:48;;;;;;;12.98;4.42;;;;;;;8.46;77.13;101344.66;1737230;81;22612;-90
2021/10/17 05:17:15;;;;;;;9.73;4.03;;;;;;;8.48;77.05;101343.42;1730864;82;21599;-92
2021/10/17 05:19:41;;;;;;;12.18;4.70;;;;;;;8.50;77.01;101341.75;1729384;82;21066;-81
2021/10/17 05:22:08;;;;;;;13.38;5.00;;;;;;;8.51;76.95;101337.00;1724447;82;21058;-91
2021/10/17 05:24:35;;;;;;;11.10;4.92;;;;;;;8.53;76.92;101334.03;1734082;82;21039;-90
2021/10/17 05:27:01;;;;;;;14.00;4.45;;;;;;;8.55;76.81;101338.50;1736528;82;21915;-91
2021/10/17 05:29:28;;;;;;;9.03;4.10;;;;;;;8.56;76.78;101346.87;1730404;81;21082;-91
2021/10/17 05:31:55;;;;;;;14.90;4.53;;;;;;;8.58;76.74;101353.89;1743593;81;21063;-82
2021/10/17 05:34:21;;;;;;;10.68;4.30;;;;;;;8.60;76.67;101346.58;1735134;81;21054;-92
2021/10/17 05:36:48;;;;;;;9.05;3.90;;;;;;;8.63;76.64;101349.31;1720822;82;21047;-91
2021/10/17 05:39:15;;;;;;;8.78;3.92;;;;;;;8.64;76.59;101347.19;1726504;82;22537;-92
2021/10/17 05:41:41;;;;;;;10.53;4.15;;;;;;;8.66;76.46;101347.26;1729841;82;21090;-92
2021/10/17 05:44:08;;;;;;;11.75;3.85;;;;;;;8.67;76.34;101349.03;1731631;82;21054;-91
2021/10/17 05:46:35;;;;;;;10.48;3.77;;;;;;;8.68;76.37;101350.42;1730667;81;21034;-91
2021/10/17 05:49:02;;;;;;;13.55;4.67;;;;;;;8.69;76.25;101345.66;1732850;82;21062;-91
2021/10/17 05:51:29;;;;;;;11.80;4.58;;;;;;;8.71;76.18;101350.56;1726814;82;21751;-91
2021/10/17 05:53:55;;;;;;;9.55;4.70;;;;;;;8.72;76.15;101352.33;1720439;82;21015;-92
2021/10/17 05:57:38;;;;;;;9.95;4.00;;;;;;;8.75;76.10;101358.14;1720604;82;21080;-95
2021/10/17 06:00:35;;;;;;;;;;;;;;;;;;;;;
2021/10/17 06:02:49;;;;;;;15.03;4.42;;;;;;;8.76;75.86;101357.30;1604897;88;21002;-93
2021/10/17 06:05:35;;;;;;;11.95;4.37;;;;;;;8.80;75.80;101361.84;1593216;89;21112;-88
2021/10/17 06:08:24;;;;;;;;;;;;;;;;;;;;;
2021/10/17 06:10:40;;;;;;;9.25;3.85;;;;;;;8.87;75.58;101359.95;1504359;94;21161;-88
2021/10/17 06:13:36;;;;;;;;;;;;;;;;;;;;;
2021/10/17 06:16:13;;;;;;;9.90;3.70;;;;;;;8.96;75.40;101367.33;1438531;98;21276;-88
2021/10/17 06:18:44;;;;;;;10.58;3.75;;;;;;;9.01;75.30;101364.48;1439774;98;21118;-90
2021/10/17 06:21:18;;;;;;;;;;;;;;;;;;;;;
2021/10/17 06:23:52;;;;;;;;;;;;;;;;;;;;;
2021/10/17 06:26:22;;;;;;;;;;;;;;;;;;;;;
2021/10/17 06:28:56;;;;;;;;;;;;;;;;;;;;;
2021/10/17 06:31:20;;;;;;;13.48;3.62;;;;;;;9.26;74.80;101369.42;1462016;97;22837;-89
2021/10/17 06:34:01;;;;;;;;;;;;;;;;;;;;;
2021/10/17 06:36:36;;;;;;;;;;;;;;;;;;;;;
2021/10/17 06:38:56;;;;;;;8.55;3.80;;;;;;;9.40;74.40;101371.27;1450876;97;21673;-89
2021/10/17 06:41:42;;;;;;;;;;;;;;;;;;;;;
2021/10/17 06:44:05;;;;;;;9.10;3.75;;;;;;;9.49;74.10;101374.27;1529372;92;21115;-89
2021/10/17 06:46:41;;;;;;;8.48;4.17;;;;;;;9.53;74.02;101378.41;1579378;87;21448;-87
2021/10/17 06:49:08;;;;;;;7.22;3.67;;;;;;;9.57;73.76;101374.13;1676845;85;21459;-94
2021/10/17 06:51:37;;;;;;;8.88;3.67;;;;;;;9.60;73.67;101378.20;1676764;85;21603;-89
2021/10/17 06:54:05;;;;;;;8.98;3.67;;;;;;;9.64;73.53;101376.59;1661057;84;21101;-89
2021/10/17 06:56:36;;;;;;;10.15;3.90;;;;;;;9.67;73.39;101380.67;1657089;85;22129;-90
2021/10/17 06:59:03;;;;;;;9.30;4.10;;;;;;;9.71;73.19;101377.31;1701690;81;21077;-89
2021/10/17 07:01:31;;;;;;;8.50;3.98;;;;;;;9.75;73.13;101380.97;1743201;81;20998;-89
2021/10/17 07:03:58;;;;;;;8.68;3.77;;;;;;;9.80;72.91;101381.62;1745292;82;21545;-87
2021/10/17 07:06:26;;;;;;;7.25;3.20;;;;;;;9.84;72.80;101390.52;1745019;82;21066;-90
2021/10/17 07:08:53;;;;;;;8.00;3.50;;;;;;;9.87;72.69;101379.70;1745589;80;22538;-90
2021/10/17 07:11:19;;;;;;;7.15;3.35;;;;;;;9.90;72.56;101374.97;1745215;82;21050;-81
2021/10/17 07:13:46;;;;;;;9.28;3.58;;;;;;;9.92;72.37;101377.23;1744663;82;21034;-80
2021/10/17 07:16:13;;;;;;;13.83;3.77;;;;;;;9.99;72.25;101382.31;1744765;82;21069;-81
2021/10/17 07:18:39;;;;;;;6.20;3.33;;;;;;;10.04;72.20;101384.28;1744557;82;21073;-82
2021/10/17 07:21:06;;;;;;;7.70;3.30;;;;;;;10.11;72.08;101385.39;1745671;81;22561;-87
2021/10/17 07:23:33;;;;;;;5.92;3.52;;;;;;;10.19;71.95;101385.66;1745667;82;21042;-89
2021/10/17 07:25:59;;;;;;;9.58;4.33;;;;;;;10.25;71.72;101381.53;1745922;81;21046;-88
2021/10/17 07:28:26;;;;;;;7.67;3.85;;;;;;;10.35;71.58;101383.22;1745319;81;21054;-83
2021/10/17 07:30:53;;;;;;;7.75;3.95;;;;;;;10.44;71.44;101386.19;1745266;82;21558;-81
2021/10/17 07:33:19;;;;;;;10.88;4.62;;;;;;;10.48;71.28;101384.13;1745142;82;22546;-84
2021/10/17 07:35:46;;;;;;;9.55;4.92;;;;;;;10.55;71.09;101383.91;1745616;82;21045;-91
2021/10/17 07:38:13;;;;;;;9.05;4.00;;;;;;;10.60;70.87;101376.64;1745566;82;21073;-82
2021/10/17 07:40:39;;;;;;;9.80;4.62;;;;;;;10.64;70.73;101377.25;1744920;81;21081;-83
2021/10/17 07:43:06;;;;;;;11.55;4.10;;;;;;;10.68;70.50;101376.52;1744899;82;21094;-85
2021/10/17 07:45:33;;;;;;;11.80;5.47;;;;;;;10.73;70.25;101379.29;1785145;80;21725;-84
2021/10/17 07:47:59;;;;;;;11.12;6.90;;;;;;;10.75;70.20;101377.60;1784969;80;21457;-83
2021/10/17 07:50:26;;;;;;;13.30;6.67;;;;;;;10.80;70.10;101383.93;1785378;80;20998;-89
2021/10/17 07:52:53;;;;;;;11.75;6.47;;;;;;;10.85;70.01;101377.52;1785685;80;21120;-88
2021/10/17 07:55:19;;;;;;;12.78;5.78;;;;;;;10.93;69.89;101380.41;1785849;80;20978;-89
2021/10/17 07:57:53;;;;;;;12.58;7.50;;;;;;;10.99;69.74;101384.12;1785912;80;21758;-89
2021/10/17 08:00:23;;;;;;;8.50;4.97;;;;;;;11.04;69.61;101379.03;1785164;80;20982;-84
2021/10/17 08:02:49;;;;;;;13.18;5.75;;;;;;;11.13;69.53;101381.97;1785348;80;21582;-82
2021/10/17 08:05:16;;;;;;;13.95;5.37;;;;;;;11.23;69.32;101387.11;1785326;80;21184;-85
2021/10/17 08:07:43;;;;;;;11.22;5.65;;;;;;;11.30;69.13;101386.47;1785692;80;21030;-90
2021/10/17 08:10:09;;;;;;;7.30;4.00;;;;;;;11.38;69.01;101384.96;1785607;80;21754;-91
2021/10/17 08:12:36;;;;;;;6.05;3.87;;;;;;;11.45;68.76;101385.63;1785592;80;20959;-92
2021/10/17 08:15:03;;;;;;;8.50;4.65;;;;;;;11.56;68.73;101383.34;1785391;80;21046;-86
2021/10/17 08:17:30;;;;;;;11.83;6.03;;;;;;;11.75;68.61;101387.83;1785383;80;21021;-85
2021/10/17 08:19:57;;;;;;;10.78;5.08;;;;;;;11.89;68.18;101381.23;1785231;80;21054;-85
2021/10/17 08:22:23;;;;;;;14.87;7.90;;;;;;;12.02;68.04;101382.53;1785854;80;21752;-93
2021/10/17 08:24:51;;;;;;;12.58;7.10;;;;;;;12.19;67.90;101384.34;1785689;80;21041;-86
2021/10/17 08:27:18;;;;;;;28.47;17.52;;;;;;;12.33;67.51;101386.03;1785699;80;21002;-94
2021/10/17 08:29:45;;;;;;;17.40;8.80;;;;;;;12.41;67.18;101384.09;1785828;80;21512;-87
2021/10/17 08:32:12;;;;;;;8.80;4.35;;;;;;;12.50;66.90;101382.14;1785671;80;21090;-94
2021/10/17 08:34:40;;;;;;;10.63;3.85;;;;;;;12.58;66.70;101391.59;1785606;80;20996;-86
2021/10/17 08:37:07;;;;;;;10.25;3.72;;;;;;;12.67;66.47;101394.48;1785342;80;21002;-89
2021/10/17 08:39:33;;;;;;;12.25;5.83;;;;;;;12.74;66.13;101396.41;1784280;80;21555;-87
2021/10/17 08:42:00;;;;;;;10.35;4.75;;;;;;;12.76;65.93;101389.84;1734901;82;21482;-85
2021/10/17 08:44:27;;;;;;;8.95;4.20;;;;;;;12.72;65.68;101391.51;1716498;83;21541;-84
2021/10/17 08:46:54;;;;;;;15.98;7.15;;;;;;;12.72;65.67;101398.55;1750711;81;22560;-85
2021/10/17 08:49:23;;;;;;;14.45;8.35;;;;;;;12.71;65.72;101395.02;1761352;81;21007;-87
2021/10/17 08:51:50;;;;;;;20.75;14.93;;;;;;;12.72;65.55;101396.79;1761294;81;21109;-83
2021/10/17 08:54:17;;;;;;;14.05;6.83;;;;;;;12.73;65.54;101396.39;1739857;81;21280;-85
2021/10/17 08:56:44;;;;;;;24.60;18.80;;;;;;;12.72;65.32;101391.94;1761269;81;21579;-84
2021/10/17 08:59:10;;;;;;;17.65;11.12;;;;;;;12.73;65.40;101401.67;1760985;81;21683;-84
2021/10/17 09:01:37;;;;;;;10.40;7.55;;;;;;;12.73;65.37;101391.98;1760652;81;21015;-85
2021/10/17 09:04:06;;;;;;;10.65;7.17;;;;;;;12.73;65.29;101386.70;1760485;81;21031;-84
2021/10/17 09:06:37;;;;;;;13.83;7.35;;;;;;;12.75;65.15;101390.28;1760883;81;21853;-92
2021/10/17 09:09:10;;;;;;;14.53;6.75;;;;;;;12.78;65.01;101391.69;1761305;81;21466;-92
2021/10/17 09:11:44;;;;;;;7.70;3.62;;;;;;;12.75;64.76;101394.68;1761390;81;21758;-92
2021/10/17 09:14:15;;;;;;;9.25;3.35;;;;;;;12.67;64.64;101397.12;1761616;81;21031;-92
2021/10/17 09:16:44;;;;;;;10.38;3.12;;;;;;;12.61;64.60;101400.48;1761494;81;21521;-92
2021/10/17 09:19:13;;;;;;;7.55;3.50;;;;;;;12.62;64.62;101401.38;1761658;81;21551;-92
2021/10/17 09:21:58;;;;;;;7.33;3.05;;;;;;;12.60;64.37;101397.36;1761743;80;21301;-93
2021/10/17 09:24:43;;;;;;;6.67;3.02;;;;;;;12.62;64.48;101402.70;1761495;81;21821;-84
2021/10/17 09:27:18;;;;;;;7.62;3.70;;;;;;;12.67;64.30;101393.16;1740235;81;21611;-85
2021/10/17 09:29:48;;;;;;;8.58;3.62;;;;;;;12.73;64.28;101394.62;1761129;81;21038;-92
2021/10/17 09:32:19;;;;;;;6.40;3.17;;;;;;;12.77;64.18;101395.17;1761506;81;21007;-92
2021/10/17 09:35:04;;;;;;;11.68;3.90;;;;;;;12.83;63.92;101388.72;1761762;81;21013;-92
2021/10/17 09:37:34;;;;;;;12.30;7.22;;;;;;;12.91;63.99;101389.34;1761129;81;21838;-84
2021/10/17 09:40:19;;;;;;;24.55;16.00;;;;;;;13.05;64.00;101393.25;1762787;80;21125;-83
2021/10/17 09:43:13;;;;;;;17.12;8.05;;;;;;;13.18;63.71;101389.16;1774134;80;21045;-91
2021/10/17 09:45:40;;;;;;;17.92;12.05;;;;;;;13.29;63.47;101387.67;1775021;80;21069;-91
2021/10/17 09:48:07;;;;;;;25.90;17.10;;;;;;;13.43;63.42;101388.46;1774933;80;21607;-92
2021/10/17 09:50:34;;;;;;;15.35;10.60;;;;;;;13.57;63.17;101386.61;1775090;80;21712;-91
2021/10/17 09:53:14;;;;;;;13.98;7.15;;;;;;;13.71;63.16;101386.91;1774752;80;21034;-91
2021/10/17 09:55:39;;;;;;;9.63;4.95;;;;;;;13.86;62.94;101386.35;1774787;80;21034;-91
2021/10/17 09:58:06;;;;;;;7.67;3.50;;;;;;;14.00;62.69;101380.93;1775083;80;21118;-91
2021/10/17 10:00:36;;;;;;;9.98;4.00;;;;;;;14.08;62.62;101373.59;1774981;80;21096;-92
2021/10/17 10:03:02;;;;;;;7.05;3.42;;;;;;;14.16;62.23;101374.19;1745384;80;21756;-92
2021/10/17 10:05:29;;;;;;;14.53;7.33;;;;;;;14.16;62.01;101372.86;1744872;80;21085;-92
2021/10/17 10:08:03;;;;;;;21.35;12.05;;;;;;;14.22;61.92;101376.06;1774933;80;21045;-91
2021/10/17 10:10:31;;;;;;;25.43;12.23;;;;;;;14.29;61.74;101381.06;1775025;80;21543;-92
2021/10/17 10:13:00;;;;;;;28.90;16.07;;;;;;;14.32;61.35;101382.42;1775029;80;21534;-92
2021/10/17 10:15:27;;;;;;;43.25;22.77;;;;;;;14.33;61.40;101378.49;1775082;80;21717;-92
2021/10/17 10:17:54;;;;;;;46.23;24.87;;;;;;;14.30;61.26;101381.51;1774854;80;21061;-91
2021/10/17 10:20:23;;;;;;;27.55;15.35;;;;;;;14.27;61.08;101382.80;1775036;80;21077;-92
2021/10/17 10:22:51;;;;;;;40.65;21.33;;;;;;;14.24;60.86;101384.05;1774410;80;21355;-84
2021/10/17 10:25:18;;;;;;;57.38;35.65;;;;;;;14.18;60.84;101384.38;1774208;80;21194;-84
2021/10/17 10:27:45;;;;;;;29.48;18.80;;;;;;;14.12;60.71;101374.98;1774695;80;21730;-91
2021/10/17 10:30:27;;;;;;;16.93;9.75;;;;;;;14.07;60.59;101381.94;1774804;80;21520;-91
2021/10/17 10:33:17;;;;;;;27.62;17.15;;;;;;;13.96;60.43;101387.03;1774491;80;21093;-92
2021/10/17 10:36:16;;;;;;;24.70;17.07;;;;;;;13.83;60.73;101380.98;1773193;80;21069;-83
2021/10/17 10:38:57;;;;;;;26.50;14.47;;;;;;;13.78;60.54;101372.95;1774784;80;21021;-94
2021/10/17 10:41:30;;;;;;;30.75;20.92;;;;;;;13.72;60.61;101374.56;1769591;80;21755;-91
2021/10/17 10:44:17;;;;;;;24.43;16.07;;;;;;;13.47;60.29;101350.20;1766572;81;21131;-91
2021/10/17 10:46:46;;;;;;;29.23;16.12;;;;;;;13.47;60.29;101350.20;1766003;81;21054;-93
2021/10/17 10:49:13;;;;;;;28.32;16.12;;;;;;;13.50;60.43;101370.13;1767029;81;21152;-91
2021/10/17 10:51:42;;;;;;;12.45;7.37;;;;;;;13.46;60.48;101366.95;1744909;81;21034;-92
2021/10/17 10:54:27;;;;;;;5.70;3.12;;;;;;;13.48;60.55;101367.88;1766511;81;21746;-92
2021/10/17 10:56:57;;;;;;;12.88;3.20;;;;;;;13.47;60.41;101369.16;1767054;81;21058;-94
2021/10/17 10:59:29;;;;;;;6.90;2.47;;;;;;;13.43;60.35;101365.55;1766865;81;21080;-90
2021/10/17 11:02:14;;;;;;;7.83;2.60;;;;;;;13.41;60.34;101372.11;1763515;81;21081;-93
2021/10/17 11:04:45;;;;;;;10.55;4.60;;;;;;;13.40;60.18;101375.64;1767043;80;21049;-91
2021/10/17 11:07:23;;;;;;;11.30;4.20;;;;;;;13.39;60.30;101368.98;1767471;81;21751;-91
2021/10/17 11:09:52;;;;;;;11.20;5.92;;;;;;;13.44;60.39;101367.34;1767345;81;21132;-92
2021/10/17 11:12:44;;;;;;;9.30;4.97;;;;;;;13.47;60.33;101371.80;1766875;81;21019;-91
2021/10/17 11:15:15;;;;;;;12.50;6.80;;;;;;;13.48;60.26;101369.20;1766923;81;21059;-83
2021/10/17 11:17:54;;;;;;;9.58;4.78;;;;;;;13.54;60.31;101366.69;1744554;81;21543;-83
2021/10/17 11:20:23;;;;;;;10.70;3.60;;;;;;;13.65;60.41;101368.26;1766506;81;21736;-87
2021/10/17 11:22:50;;;;;;;8.05;3.85;;;;;;;13.72;60.20;101370.19;1766628;81;21152;-86
2021/10/17 11:25:19;;;;;;;7.30;3.27;;;;;;;13.81;60.05;101368.15;1766587;80;21081;-85
2021/10/17 11:27:46;;;;;;;7.70;3.17;;;;;;;13.91;60.03;101367.94;1766459;80;21310;-84
2021/10/17 11:30:29;;;;;;;6.20;2.83;;;;;;;14.08;59.99;101365.64;1766334;81;21576;-88
2021/10/17 11:32:57;;;;;;;6.85;2.90;;;;;;;14.27;59.72;101361.17;1766704;81;21817;-86
2021/10/17 11:35:35;;;;;;;7.17;2.83;;;;;;;14.48;59.46;101364.66;1766663;81;21049;-87
2021/10/17 11:38:05;;;;;;;7.00;2.70;;;;;;;14.69;59.32;101358.00;1766701;81;21030;-88
2021/10/17 11:40:34;;;;;;;7.45;2.62;;;;;;;14.85;59.01;101354.76;1766151;80;21046;-90
2021/10/17 11:43:06;;;;;;;8.40;3.98;;;;;;;15.02;58.83;101355.05;1764117;81;21026;-87
2021/10/17 11:45:43;;;;;;;10.53;4.12;;;;;;;15.14;58.68;101347.70;1763873;81;21875;-89
2021/10/17 11:48:13;;;;;;;6.92;3.02;;;;;;;15.28;58.57;101347.94;1763744;81;21132;-86